Roans Prairie, Texas
Current Conditions -  °F | °C
As of 10:53 AM on Thursday 23 Oct 2014 (Local Time) from KUTS Reporting Station
Clear Clear  
Wind Chill: 70°   Ceiling: Unl
Heat Index: 70°   Visibility: 10mi
Dew Point: 53°   Wind: 0mph
Humidity: 55%   Direction: NA
Pressure: 30.16"   Gusts: NA
Location:  30.58°N, 95.94°W
Report Text: KUTS 231553Z AUTO 00000KT 10SM CLR 21/12 A3016 RMK AO2 SLP209 T02110117
Loading
Personal Weather Stations






























Interactive Weather Map New forecast layout! Learn more

10-Day Weather Forecast

Advertisements
Track Severe Weather on mobile